Time,TemperatureF,DewpointF,PressureIn,WindDirection,WindDirectionDegrees,WindSpeedMPH,WindSpeedGustMPH,Humidity,HourlyPrecipIn,Conditions,Clouds,dailyrainin,SoftwareType,DateUTC
2013-07-22 00:00:00,66.6,63.3,29.94,South,180,3.0,7.0,89,0.00,,---,0.00,VWS V14.01,2013-07-22 07:00:00,
2013-07-22 00:30:00,66.7,63.4,29.94,South,180,2.0,5.0,89,0.00,,---,0.00,VWS V14.01,2013-07-22 07:30:00,
2013-07-22 01:00:00,66.7,63.7,29.94,South,180,2.0,5.0,90,0.00,,---,0.00,VWS V14.01,2013-07-22 08:00:00,
2013-07-22 01:30:00,66.6,63.6,29.95,South,180,1.0,4.0,90,0.00,,---,0.00,VWS V14.01,2013-07-22 08:30:00,
2013-07-22 02:00:00,66.5,63.8,29.94,South,180,2.0,4.0,91,0.00,,---,0.00,VWS V14.01,2013-07-22 09:00:00,
2013-07-22 02:30:00,66.5,63.8,29.93,South,180,1.0,5.0,91,0.00,,---,0.00,VWS V14.01,2013-07-22 09:30:00,
2013-07-22 03:00:00,66.5,64.1,29.94,South,180,2.0,6.0,92,0.00,,---,0.00,VWS V14.01,2013-07-22 10:00:00,
2013-07-22 03:30:00,66.3,63.9,29.93,South,180,1.0,4.0,92,0.00,,---,0.00,VWS V14.01,2013-07-22 10:30:00,
2013-07-22 04:00:00,66.1,63.7,29.93,South,180,1.0,3.0,92,0.00,,---,0.00,VWS V14.01,2013-07-22 11:00:00,
2013-07-22 04:30:00,65.9,63.8,29.93,South,180,1.0,3.0,93,0.00,,---,0.00,VWS V14.01,2013-07-22 11:30:00,
2013-07-22 05:00:00,66.1,63.7,29.93,South,180,1.0,3.0,92,0.00,,---,0.00,VWS V14.01,2013-07-22 12:00:00,
2013-07-22 05:28:00,65.6,63.5,29.94,South,184,0.0,1.0,93,0.00,,---,0.00,VWS V14.01,2013-07-22 12:28:00,
2013-07-22 05:30:00,65.6,63.5,29.94,South,184,0.0,1.0,93,0.00,,---,0.00,VWS V14.01,2013-07-22 12:30:00,
2013-07-22 05:58:00,65.2,63.1,29.95,South,184,0.0,1.0,93,0.00,,---,0.00,VWS V14.01,2013-07-22 12:58:00,
2013-07-22 06:00:00,65.2,63.1,29.95,South,184,0.0,1.0,93,0.00,,---,0.00,VWS V14.01,2013-07-22 13:00:00,
2013-07-22 06:28:00,65.0,63.2,29.95,South,181,0.0,1.0,94,0.00,,---,0.00,VWS V14.01,2013-07-22 13:28:00,
2013-07-22 06:30:00,65.0,63.2,29.95,South,181,0.0,1.0,94,0.00,,---,0.00,VWS V14.01,2013-07-22 13:30:00,
2013-07-22 06:58:00,65.7,63.9,29.96,South,181,0.0,2.0,94,0.00,,---,0.00,VWS V14.01,2013-07-22 13:58:00,
2013-07-22 07:00:00,65.7,63.9,29.96,South,181,0.0,2.0,94,0.00,,---,0.00,VWS V14.01,2013-07-22 14:00:00,
2013-07-22 07:30:00,67.6,64.9,29.97,South,180,1.0,3.0,91,0.00,,---,0.00,VWS V14.01,2013-07-22 14:30:00,
2013-07-22 08:00:00,69.6,65.6,29.98,South,180,1.0,4.0,87,0.00,,---,0.00,VWS V14.01,2013-07-22 15:00:00,
2013-07-22 08:30:00,71.6,66.2,29.98,South,180,2.0,5.0,83,0.00,,---,0.00,VWS V14.01,2013-07-22 15:30:00,
2013-07-22 09:00:00,72.9,66.0,29.99,South,180,3.0,8.0,79,0.00,,---,0.00,VWS V14.01,2013-07-22 16:00:00,
2013-07-22 09:30:00,73.0,66.1,29.99,SSE,158,4.0,8.0,79,0.00,,---,0.00,VWS V14.01,2013-07-22 16:30:00,
2013-07-22 10:00:00,74.1,66.1,29.99,South,180,4.0,9.0,76,0.00,,---,0.00,VWS V14.01,2013-07-22 17:00:00,
2013-07-22 10:30:00,75.3,66.8,29.99,South,180,5.0,12.0,75,0.00,,---,0.00,VWS V14.01,2013-07-22 17:30:00,
2013-07-22 11:00:00,75.5,66.2,29.99,South,180,6.0,10.0,73,0.00,,---,0.00,VWS V14.01,2013-07-22 18:00:00,
2013-07-22 11:30:00,77.0,65.6,30.00,SSW,202,4.0,9.0,68,0.00,,---,0.00,VWS V14.01,2013-07-22 18:30:00,
2013-07-22 12:00:00,77.5,66.5,29.99,South,180,6.0,11.0,69,0.00,,---,0.00,VWS V14.01,2013-07-22 19:00:00,
2013-07-22 12:30:00,76.7,66.6,29.99,South,180,7.0,14.0,71,0.00,,---,0.00,VWS V14.01,2013-07-22 19:30:00,
2013-07-22 13:00:00,76.2,66.9,29.99,South,180,8.0,15.0,73,0.00,,---,0.00,VWS V14.01,2013-07-22 20:00:00,
2013-07-22 13:30:00,76.4,66.7,29.98,SSW,202,9.0,16.0,72,0.00,,---,0.00,VWS V14.01,2013-07-22 20:30:00,
2013-07-22 14:00:00,77.1,67.0,29.98,South,180,8.0,16.0,71,0.00,,---,0.00,VWS V14.01,2013-07-22 21:00:00,
2013-07-22 14:30:00,76.4,67.1,29.98,SSW,202,9.0,17.0,73,0.00,,---,0.00,VWS V14.01,2013-07-22 21:30:00,
2013-07-22 15:00:00,77.9,66.9,29.97,SSW,202,6.0,13.0,69,0.00,,---,0.00,VWS V14.01,2013-07-22 22:00:00,
2013-07-22 15:30:00,77.7,66.3,29.97,South,180,7.0,14.0,68,0.00,,---,0.00,VWS V14.01,2013-07-22 22:30:00,
2013-07-22 16:00:00,76.4,65.9,29.96,South,180,8.0,15.0,70,0.00,,---,0.00,VWS V14.01,2013-07-22 23:00:00,
2013-07-22 16:30:00,75.7,64.8,29.96,South,180,9.0,15.0,69,0.00,,---,0.00,VWS V14.01,2013-07-22 23:30:00,
2013-07-22 17:00:00,75.2,63.9,29.95,South,180,8.0,16.0,68,0.00,,---,0.00,VWS V14.01,2013-07-23 00:00:00,
2013-07-22 17:30:00,74.6,64.2,29.95,South,180,8.0,15.0,70,0.00,,---,0.00,VWS V14.01,2013-07-23 00:30:00,
2013-07-22 18:00:00,73.8,64.6,29.95,South,180,7.0,15.0,73,0.00,,---,0.00,VWS V14.01,2013-07-23 01:00:00,
2013-07-22 18:30:00,73.6,64.8,29.95,South,180,5.0,12.0,74,0.00,,---,0.00,VWS V14.01,2013-07-23 01:30:00,
2013-07-22 19:00:00,73.0,64.2,29.96,SSE,158,5.0,11.0,74,0.00,,---,0.00,VWS V14.01,2013-07-23 02:00:00,
2013-07-22 19:30:00,72.9,64.5,29.96,South,180,4.0,9.0,75,0.00,,---,0.00,VWS V14.01,2013-07-23 02:30:00,
2013-07-22 20:00:00,72.0,64.4,29.97,South,180,3.0,8.0,77,0.00,,---,0.00,VWS V14.01,2013-07-23 03:00:00,
2013-07-22 20:30:00,71.2,64.0,29.97,South,180,2.0,6.0,78,0.00,,---,0.00,VWS V14.01,2013-07-23 03:30:00,
2013-07-22 21:00:00,70.7,63.9,29.97,WNW,292,3.0,6.0,79,0.00,,---,0.00,VWS V14.01,2013-07-23 04:00:00,
2013-07-22 21:30:00,69.9,63.8,29.98,WNW,292,4.0,8.0,81,0.00,,---,0.00,VWS V14.01,2013-07-23 04:30:00,
2013-07-22 22:00:00,69.4,63.7,29.98,West,270,2.0,5.0,82,0.00,,---,0.00,VWS V14.01,2013-07-23 05:00:00,
2013-07-22 22:30:00,68.9,63.5,29.99,West,270,1.0,5.0,83,0.00,,---,0.00,VWS V14.01,2013-07-23 05:30:00,
2013-07-22 23:00:00,68.6,63.2,29.99,West,270,2.0,5.0,83,0.00,,---,0.00,VWS V14.01,2013-07-23 06:00:00,
2013-07-22 23:30:00,68.5,63.5,30.00,WNW,292,2.0,5.0,84,0.00,,---,0.00,VWS V14.01,2013-07-23 06:30:00,